Time;durP1;ratioP1;P1;durP2;ratioP2;P2;SDS_P1;SDS_P2;PMS_P1;PMS_P2;Temp;Humidity;BMP_temperature;BMP_pressure;BME280_temperature;BME280_humidity;BME280_pressure;Samples;Min_cycle;Max_cycle;Signal;HPM_P1;HPM_P2
2022/10/30 00:00:29;;;;;;;;;;;;;;;10.34;85.24;101639.63;4972679;28;19925;-89
2022/10/30 00:05:58;;;;;;;;;;;;;;;10.23;85.96;101639.69;5006846;28;19979;-89
2022/10/30 00:08:27;;;;;;;;;;;;;;;10.28;85.72;101641.03;5012436;28;19922;-90
2022/10/30 00:11:00;;;;;;;;;;;;;;;10.20;85.86;101631.91;5021442;28;19940;-92
2022/10/30 00:13:27;;;;;;;;;;;;;;;9.98;85.47;101588.13;5018065;28;19949;-90
2022/10/30 00:16:21;;;;;;;;;;;;;;;10.26;85.28;101631.38;5006145;28;19932;-90
2022/10/30 00:18:46;;;;;;;;;;;;;;;10.20;85.32;101637.28;5012914;28;19932;-91
2022/10/30 00:21:28;;;;;;;;;;;;;;;;;;;;;
2022/10/30 00:26:58;;;;;;;;;;;;;;;10.05;85.69;101618.00;5022250;28;20273;-91
2022/10/30 00:29:25;;;;;;;;;;;;;;;9.95;85.96;101617.97;5004779;28;19952;-88
2022/10/30 00:31:51;;;;;;;;;;;;;;;9.97;86.04;101617.81;5019376;28;19925;-89
2022/10/30 00:34:17;;;;;;;;;;;;;;;9.99;85.32;101614.00;5011096;28;20032;-91
2022/10/30 00:36:43;;;;;;;;;;;;;;;9.94;85.72;101618.91;4990952;28;19917;-87
2022/10/30 00:39:10;;;;;;;;;;;;;;;9.73;86.58;101613.56;4994392;28;19956;-90
2022/10/30 00:41:40;;;;;;;;;;;;;;;9.70;86.89;101620.06;5008222;28;20035;-87
2022/10/30 00:44:26;;;;;;;;;;;;;;;9.65;86.98;101616.09;5013928;28;19925;-89
2022/10/30 00:46:51;;;;;;;;;;;;;;;9.63;86.94;101615.34;4997261;28;20338;-87
2022/10/30 00:49:21;;;;;;;;;;;;;;;9.56;86.97;101606.13;4984571;28;19922;-88
2022/10/30 00:52:10;;;;;;;;;;;;;;;9.49;87.82;101606.66;4986414;28;19968;-88
2022/10/30 00:54:35;;;;;;;;;;;;;;;9.63;86.79;101601.94;5008320;28;20019;-88
2022/10/30 00:57:02;;;;;;;;;;;;;;;9.66;86.26;101590.91;4988334;28;19921;-88
2022/10/30 00:59:28;;;;;;;;;;;;;;;9.57;86.18;101603.28;4990392;28;19917;-88
2022/10/30 01:01:57;;;;;;;;;;;;;;;9.45;86.91;101597.13;4992272;28;19918;-88
2022/10/30 01:04:22;;;;;;;;;;;;;;;9.32;87.20;101593.81;5004595;28;19918;-88
2022/10/30 01:06:47;;;;;;;;;;;;;;;9.28;87.81;101589.69;4988510;28;19918;-89
2022/10/30 01:09:13;;;;;;;;;;;;;;;9.31;87.54;101581.38;4987912;28;20013;-89
2022/10/30 01:11:47;;;;;;;;;;;;;;;9.31;87.14;101578.69;5023419;28;19965;-89
2022/10/30 01:14:13;;;;;;;;;;;;;;;9.34;87.32;101581.13;5006106;28;19955;-88
2022/10/30 01:16:53;;;;;;;;;;;;;;;9.39;86.83;101583.38;4992605;28;20048;-88
2022/10/30 01:19:25;;;;;;;;;;;;;;;9.39;86.43;101580.69;4989650;28;19929;-89
2022/10/30 01:22:14;;;;;;;;;;;;;;;9.34;86.20;101572.19;4975668;28;19925;-88
2022/10/30 01:24:43;;;;;;;;;;;;;;;9.30;86.54;101577.00;4988649;28;19932;-90
2022/10/30 01:30:30;;;;;;;;;;;;;;;9.14;86.79;101568.53;4999214;28;19937;-89
2022/10/30 01:33:14;;;;;;;;;;;;;;;9.17;86.63;101569.13;5004476;28;19925;-88
2022/10/30 01:35:42;;;;;;;;;;;;;;;9.08;86.36;101569.88;4989385;28;19925;-91
2022/10/30 01:38:27;;;;;;;;;;;;;;;8.93;86.91;101569.34;4999303;28;19929;-90
2022/10/30 01:40:53;;;;;;;;;;;;;;;8.96;86.35;101571.75;4998284;28;19978;-89
2022/10/30 01:43:58;;;;;;;;;;;;;;;8.90;86.64;101563.38;4999749;28;19934;-92
2022/10/30 01:49:34;;;;;;;;;;;;;;;8.64;87.17;101559.22;5015056;28;19920;-89
2022/10/30 01:52:15;;;;;;;;;;;;;;;8.73;86.86;101559.41;4995309;28;19945;-90
2022/10/30 01:55:04;;;;;;;;;;;;;;;8.57;87.09;101563.38;4973316;28;19933;-89
2022/10/30 01:57:47;;;;;;;;;;;;;;;8.46;87.10;101560.72;4992733;28;20026;-89
2022/10/30 02:00:14;;;;;;;;;;;;;;;8.50;86.50;101562.19;4973940;28;20315;-90
2022/10/30 02:02:40;;;;;;;;;;;;;;;8.39;86.41;101562.16;4969273;28;19922;-89
2022/10/30 02:05:06;;;;;;;;;;;;;;;8.45;86.39;101565.25;4963892;28;19929;-88
2022/10/30 02:07:35;;;;;;;;;;;;;;;8.52;85.60;101562.03;4963967;28;19918;-89
2022/10/30 02:10:05;;;;;;;;;;;;;;;8.47;85.84;101565.09;4984354;28;19921;-88
2022/10/30 02:12:33;;;;;;;;;;;;;;;8.39;86.00;101572.88;4980975;28;19929;-89
2022/10/30 02:14:59;;;;;;;;;;;;;;;8.38;85.99;101572.03;4984270;28;20068;-89
2022/10/30 02:17:24;;;;;;;;;;;;;;;8.41;86.10;101568.28;4968447;28;19953;-88
2022/10/30 02:19:50;;;;;;;;;;;;;;;8.51;85.42;101565.72;4965853;28;19926;-89
2022/10/30 02:22:16;;;;;;;;;;;;;;;8.45;85.59;101567.03;5002482;28;20763;-89
2022/10/30 02:24:44;;;;;;;;;;;;;;;8.40;85.59;101562.06;5010157;28;20401;-89
2022/10/30 02:27:10;;;;;;;;;;;;;;;8.27;85.83;101564.03;5007728;28;19933;-89
2022/10/30 02:29:39;;;;;;;;;;;;;;;8.12;86.64;101560.72;5001957;28;19918;-89
2022/10/30 02:32:05;;;;;;;;;;;;;;;7.97;87.48;101567.31;5003914;28;20381;-88
2022/10/30 02:34:32;;;;;;;;;;;;;;;7.92;87.59;101559.66;5007908;28;20004;-89
2022/10/30 02:36:58;;;;;;;;;;;;;;;7.77;88.34;101556.38;4998859;28;19977;-89
2022/10/30 02:39:24;;;;;;;;;;;;;;;7.79;88.56;101558.91;4981340;28;20710;-89
2022/10/30 02:41:50;;;;;;;;;;;;;;;7.77;88.69;101555.50;5012057;28;19918;-88
2022/10/30 02:44:19;;;;;;;;;;;;;;;7.83;88.15;101555.88;5007069;28;19940;-89
2022/10/30 02:46:44;;;;;;;;;;;;;;;7.81;88.46;101552.47;5008840;28;19921;-90
2022/10/30 02:49:09;;;;;;;;;;;;;;;7.85;88.35;101555.75;5007118;28;19973;-89
2022/10/30 02:51:35;;;;;;;;;;;;;;;7.88;88.47;101555.50;4987997;28;19975;-89
2022/10/30 02:54:00;;;;;;;;;;;;;;;7.97;88.54;101552.09;4984606;28;19925;-88
2022/10/30 02:56:29;;;;;;;;;;;;;;;7.98;88.69;101552.94;4991870;28;19929;-88
2022/10/30 02:58:55;;;;;;;;;;;;;;;8.04;88.53;101553.31;4993932;28;20305;-88
2022/10/30 03:01:22;;;;;;;;;;;;;;;7.80;89.83;101556.13;4974009;28;20429;-89
2022/10/30 03:03:47;;;;;;;;;;;;;;;7.75;90.74;101552.97;4987980;28;19921;-88
2022/10/30 03:06:15;;;;;;;;;;;;;;;7.70;91.53;101554.28;5006882;28;20047;-88
2022/10/30 03:08:40;;;;;;;;;;;;;;;7.86;91.37;101556.59;4975966;28;19918;-86
2022/10/30 03:11:07;;;;;;;;;;;;;;;7.81;91.47;101552.47;4976850;28;19982;-89
2022/10/30 03:13:32;;;;;;;;;;;;;;;7.87;91.88;101551.13;5011716;28;19921;-89
2022/10/30 03:16:05;;;;;;;;;;;;;;;7.85;91.82;101539.69;5010483;28;19928;-87
2022/10/30 03:18:33;;;;;;;;;;;;;;;7.98;92.00;101558.31;4991726;28;19952;-87
2022/10/30 03:21:00;;;;;;;;;;;;;;;8.01;92.03;101552.72;4983285;28;19922;-89
2022/10/30 03:23:27;;;;;;;;;;;;;;;8.07;92.09;101559.41;4995585;28;19972;-89
2022/10/30 03:25:57;;;;;;;;;;;;;;;8.14;91.44;101557.94;4991217;28;20294;-88
2022/10/30 03:28:24;;;;;;;;;;;;;;;8.18;91.36;101552.22;4989384;28;20372;-89
2022/10/30 03:30:51;;;;;;;;;;;;;;;8.24;91.33;101551.72;4992184;28;20391;-89
2022/10/30 03:33:16;;;;;;;;;;;;;;;8.28;90.82;101543.44;4992880;28;20680;-90
2022/10/30 03:35:44;;;;;;;;;;;;;;;8.16;91.43;101550.63;5010697;28;19918;-88
2022/10/30 03:38:10;;;;;;;;;;;;;;;8.16;91.73;101545.28;4988395;28;20385;-88
2022/10/30 03:40:35;;;;;;;;;;;;;;;7.91;92.87;101546.38;4995390;28;20079;-89
2022/10/30 03:43:02;;;;;;;;;;;;;;;8.01;92.65;101536.66;5018717;28;19925;-88
2022/10/30 03:45:28;;;;;;;;;;;;;;;7.99;92.92;101544.81;5008992;28;19925;-88
2022/10/30 03:47:55;;;;;;;;;;;;;;;7.86;92.98;101554.78;5018682;28;19921;-90
2022/10/30 03:50:22;;;;;;;;;;;;;;;7.96;92.87;101546.84;4995442;28;20163;-89
2022/10/30 03:52:48;;;;;;;;;;;;;;;7.90;92.75;101542.00;5002868;28;19923;-89
2022/10/30 03:55:13;;;;;;;;;;;;;;;7.82;93.50;101538.13;4984992;28;19969;-88
2022/10/30 03:57:42;;;;;;;;;;;;;;;7.86;93.36;101537.88;4997420;28;19921;-89
2022/10/30 04:00:11;;;;;;;;;;;;;;;7.75;93.71;101536.03;5011969;28;19980;-87
2022/10/30 04:02:37;;;;;;;;;;;;;;;7.78;93.73;101533.13;5028367;28;19989;-86
2022/10/30 04:05:02;;;;;;;;;;;;;;;7.83;93.57;101526.44;4989655;28;19984;-87
2022/10/30 04:07:31;;;;;;;;;;;;;;;7.93;93.40;101520.34;5011927;28;19936;-88
2022/10/30 04:10:01;;;;;;;;;;;;;;;7.84;93.48;101524.59;5007630;28;19925;-88
2022/10/30 04:12:37;;;;;;;;;;;;;;;7.83;93.55;101523.75;5021015;28;19974;-87
2022/10/30 04:15:15;;;;;;;;;;;;;;;7.89;94.00;101526.91;5020500;28;19924;-85
2022/10/30 04:17:41;;;;;;;;;;;;;;;7.81;93.73;101525.69;4999393;28;19940;-86
2022/10/30 04:20:07;;;;;;;;;;;;;;;7.72;94.34;101515.72;4991015;28;19947;-89
2022/10/30 04:22:36;;;;;;;;;;;;;;;7.75;93.80;101518.16;4995463;28;19988;-87
2022/10/30 04:25:01;;;;;;;;;;;;;;;7.78;93.84;101525.09;5009153;28;19918;-86
2022/10/30 04:27:26;;;;;;;;;;;;;;;7.68;94.30;101513.41;5013176;28;19926;-87
2022/10/30 04:29:55;;;;;;;;;;;;;;;7.67;94.33;101523.25;5005190;28;19951;-88
2022/10/30 04:32:21;;;;;;;;;;;;;;;7.67;93.88;101522.41;4997975;28;20065;-87
2022/10/30 04:34:52;;;;;;;;;;;;;;;7.72;93.88;101521.06;4998865;28;19921;-85
2022/10/30 04:37:22;;;;;;;;;;;;;;;7.66;93.53;101526.06;4984027;28;19989;-88
2022/10/30 04:39:49;;;;;;;;;;;;;;;7.55;93.57;101524.22;4995632;28;20292;-88
2022/10/30 04:42:22;;;;;;;;;;;;;;;7.58;93.36;101523.97;5014771;28;19917;-89
2022/10/30 04:44:53;;;;;;;;;;;;;;;7.70;93.22;101528.38;5003901;28;20015;-88
2022/10/30 04:47:39;;;;;;;;;;;;;;;7.77;92.75;101520.69;5002885;28;19917;-87
2022/10/30 04:50:05;;;;;;;;;;;;;;;7.93;92.07;101528.38;4995450;28;19925;-89
2022/10/30 04:52:31;;;;;;;;;;;;;;;7.87;91.56;101528.88;5006915;28;19940;-90
2022/10/30 04:54:59;;;;;;;;;;;;;;;7.91;91.51;101524.97;5017579;28;19928;-89
2022/10/30 04:57:26;;;;;;;;;;;;;;;7.93;91.13;101523.00;4995832;28;19965;-88
2022/10/30 04:59:52;;;;;;;;;;;;;;;7.90;90.75;101523.28;5000966;28;19921;-90
2022/10/30 05:02:20;;;;;;;;;;;;;;;8.07;89.84;101525.44;4985817;28;20024;-89
2022/10/30 05:04:56;;;;;;;;;;;;;;;8.08;89.19;101531.63;4980565;28;20056;-90
2022/10/30 05:07:21;;;;;;;;;;;;;;;8.08;88.80;101521.78;5015153;28;19921;-88
2022/10/30 05:09:48;;;;;;;;;;;;;;;8.09;88.64;101523.47;4982550;28;19952;-90
2022/10/30 05:12:17;;;;;;;;;;;;;;;8.16;88.10;101524.69;4985203;28;19948;-90
2022/10/30 05:14:45;;;;;;;;;;;;;;;8.33;87.82;101525.16;5013810;28;19940;-88
2022/10/30 05:17:11;;;;;;;;;;;;;;;8.42;87.16;101521.75;5003976;28;19926;-88
2022/10/30 05:19:57;;;;;;;;;;;;;;;8.50;86.79;101524.66;4985184;28;20026;-88
2022/10/30 05:22:22;;;;;;;;;;;;;;;8.43;86.99;101520.78;5015247;28;19937;-90
2022/10/30 05:24:48;;;;;;;;;;;;;;;8.37;87.22;101516.72;4990896;28;20352;-89
2022/10/30 05:27:14;;;;;;;;;;;;;;;8.76;86.43;101521.66;4993539;28;19918;-88
2022/10/30 05:29:43;;;;;;;;;;;;;;;9.90;83.06;101518.97;5009739;28;19948;-88
2022/10/30 05:32:23;;;;;;;;;;;;;;;11.18;78.66;101510.06;4996928;28;19913;-90
2022/10/30 05:34:50;;;;;;;;;;;;;;;12.15;72.08;101525.06;4976540;28;19924;-88
2022/10/30 05:37:15;;;;;;;;;;;;;;;13.26;67.62;101521.09;4997391;28;19918;-89
2022/10/30 05:39:41;;;;;;;;;;;;;;;14.12;65.23;101519.41;4995452;28;19921;-89
2022/10/30 05:42:13;;;;;;;;;;;;;;;15.25;60.86;101517.06;5012214;28;20024;-87
2022/10/30 05:44:39;;;;;;;;;;;;;;;16.24;57.98;101521.19;5011701;28;19924;-89
2022/10/30 05:47:07;;;;;;;;;;;;;;;16.84;54.33;101518.84;4981356;28;19918;-88
2022/10/30 05:49:33;;;;;;;;;;;;;;;17.46;52.21;101520.47;4999605;28;19932;-88
2022/10/30 05:52:00;;;;;;;;;;;;;;;17.95;50.05;101519.13;5011721;28;20001;-89
2022/10/30 05:54:27;;;;;;;;;;;;;;;18.16;49.25;101519.19;5001030;28;19922;-87
2022/10/30 05:56:54;;;;;;;;;;;;;;;19.39;47.14;101514.59;4999363;28;19918;-85
2022/10/30 05:59:19;;;;;;;;;;;;;;;20.40;44.62;101517.66;4992209;28;19922;-90
2022/10/30 06:01:58;;;;;;;;;;;;;;;21.21;42.25;101508.59;4997455;28;20384;-89
2022/10/30 06:04:24;;;;;;;;;;;;;;;21.28;42.09;101517.63;4999409;28;19917;-88
2022/10/30 06:06:58;;;;;;;;;;;;;;;22.18;40.28;101506.06;4995216;28;20405;-91
2022/10/30 06:09:24;;;;;;;;;;;;;;;22.86;38.39;101499.16;5001989;28;19956;-93
2022/10/30 06:11:49;;;;;;;;;;;;;;;23.01;37.26;101502.44;5010513;28;19921;-91
2022/10/30 06:14:17;;;;;;;;;;;;;;;23.53;36.66;101510.41;5033473;28;19921;-91
2022/10/30 06:16:45;;;;;;;;;;;;;;;23.65;35.82;101497.63;5006960;28;19922;-91
2022/10/30 06:19:11;;;;;;;;;;;;;;;23.37;35.75;101498.97;5016592;28;19981;-89
2022/10/30 06:21:43;;;;;;;;;;;;;;;23.20;35.81;101506.06;5008364;28;19949;-91
2022/10/30 06:24:14;;;;;;;;;;;;;;;22.12;37.27;101507.78;5021577;28;19918;-91
2022/10/30 06:26:40;;;;;;;;;;;;;;;20.68;39.72;101511.25;4996478;28;19921;-90
2022/10/30 06:29:05;;;;;;;;;;;;;;;19.78;41.82;101515.91;5009295;28;20133;-89
2022/10/30 06:31:30;;;;;;;;;;;;;;;19.94;42.32;101521.03;5010934;28;19932;-90
2022/10/30 06:33:57;;;;;;;;;;;;;;;19.79;42.57;101518.44;4978464;28;19966;-93
2022/10/30 06:36:28;;;;;;;;;;;;;;;21.10;40.26;101511.94;4996948;28;19929;-89
2022/10/30 06:38:54;;;;;;;;;;;;;;;22.11;38.28;101508.00;5016049;28;19927;-87
2022/10/30 06:41:45;;;;;;;;;;;;;;;22.62;36.93;101509.03;5006094;28;19926;-91
2022/10/30 06:44:13;;;;;;;;;;;;;;;22.92;36.47;101510.09;4995247;28;19984;-89
2022/10/30 06:56:09;;;;;;;;;;;;;;;25.02;32.88;101510.00;5000449;28;19984;-91
2022/10/30 07:01:47;;;;;;;;;;;;;;;25.67;32.20;101498.91;5010870;28;19999;-89
2022/10/30 07:04:25;;;;;;;;;;;;;;;26.61;30.66;101499.75;4985689;28;19922;-91
2022/10/30 07:09:58;;;;;;;;;;;;;;;27.00;29.90;101488.88;5003581;28;20038;-94
2022/10/30 07:12:30;;;;;;;;;;;;;;;27.31;29.40;101487.44;4983226;28;19918;-94
2022/10/30 07:14:56;;;;;;;;;;;;;;;27.15;29.53;101478.88;4996836;28;20001;-92
2022/10/30 07:17:25;;;;;;;;;;;;;;;26.37;30.92;101476.97;5003623;28;19960;-92
2022/10/30 07:19:51;;;;;;;;;;;;;;;26.32;31.54;101480.47;5003470;28;19921;-92
2022/10/30 07:25:22;;;;;;;;;;;;;;;27.20;30.10;101478.16;5022894;28;19919;-86
2022/10/30 07:27:50;;;;;;;;;;;;;;;27.91;29.07;101475.63;5001285;28;19930;-89
2022/10/30 07:30:16;;;;;;;;;;;;;;;27.96;28.92;101478.44;5018338;28;20017;-92
2022/10/30 07:32:46;;;;;;;;;;;;;;;28.65;28.03;101471.44;5004729;28;19936;-88
2022/10/30 07:35:13;;;;;;;;;;;;;;;28.51;28.22;101472.97;5009876;28;20007;-92
2022/10/30 07:37:44;;;;;;;;;;;;;;;28.25;28.85;101472.66;5024384;28;19932;-92
2022/10/30 07:40:33;;;;;;;;;;;;;;;28.71;27.70;101462.09;4996583;28;20333;-90
2022/10/30 07:42:59;;;;;;;;;;;;;;;28.25;27.77;101453.31;5005229;28;19945;-88
2022/10/30 07:45:36;;;;;;;;;;;;;;;28.04;28.71;101452.25;5001549;28;20282;-88
2022/10/30 07:48:06;;;;;;;;;;;;;;;27.28;29.58;101449.31;5007429;28;19925;-91
2022/10/30 07:50:34;;;;;;;;;;;;;;;27.82;28.92;101438.44;5011124;28;19977;-91
2022/10/30 07:53:02;;;;;;;;;;;;;;;28.52;28.22;101442.28;5021892;28;19922;-92
2022/10/30 08:04:47;;;;;;;;;;;;;;;29.14;27.21;101415.97;5012960;28;19932;-90
2022/10/30 08:07:43;;;;;;;;;;;;;;;29.21;27.06;101418.50;5036029;28;20302;-90
2022/10/30 08:13:32;;;;;;;;;;;;;;;30.46;25.03;101413.97;4967709;28;19924;-90
2022/10/30 08:16:29;;;;;;;;;;;;;;;;;;;;;
2022/10/30 08:18:53;;;;;;;;;;;;;;;30.35;24.97;101406.78;4946689;29;19938;-90
2022/10/30 08:21:18;;;;;;;;;;;;;;;29.74;26.08;101396.34;4952326;29;20381;-86
2022/10/30 08:23:43;;;;;;;;;;;;;;;30.51;24.97;101402.91;4940590;29;20125;-87
2022/10/30 08:26:11;;;;;;;;;;;;;;;30.71;24.65;101402.06;4951974;28;20017;-88
2022/10/30 08:31:42;;;;;;;;;;;;;;;33.56;21.72;101399.78;4957992;28;19986;-86
2022/10/30 08:34:12;;;;;;;;;;;;;;;34.09;21.01;101396.88;4948912;28;19964;-89
2022/10/30 08:36:56;;;;;;;;;;;;;;;33.58;21.03;101403.13;4956754;29;19932;-88
2022/10/30 08:39:23;;;;;;;;;;;;;;;33.69;20.58;101396.28;4970500;28;20327;-90
2022/10/30 08:42:01;;;;;;;;;;;;;;;34.80;19.49;101394.06;5000872;28;19924;-88
2022/10/30 08:44:33;;;;;;;;;;;;;;;35.44;18.77;101386.66;5035646;28;20020;-92
2022/10/30 08:53:29;;;;;;;;;;;;;;;36.34;17.89;101381.31;5064647;28;19990;-90
2022/10/30 08:56:00;;;;;;;;;;;;;;;36.85;17.64;101378.34;5036946;28;20361;-92
2022/10/30 08:58:27;;;;;;;;;;;;;;;38.01;16.56;101376.09;5056014;28;19921;-91
2022/10/30 09:00:53;;;;;;;;;;;;;;;38.77;15.89;101369.06;5059946;28;19917;-89
2022/10/30 09:03:23;;;;;;;;;;;;;;;39.41;15.12;101370.16;5017057;28;19920;-91
2022/10/30 09:18:26;;;;;;;;;;;;;;;40.37;14.36;101350.53;4990856;28;19932;-91
2022/10/30 09:24:42;;;;;;;;;;;;;;;;;;;;;
2022/10/30 09:38:32;;;;;;;;;;;;;;;40.37;14.06;101319.56;5052832;28;20004;-89
2022/10/30 09:48:10;;;;;;;;;;;;;;;40.14;13.79;101307.03;5049856;28;20276;-94
2022/10/30 09:50:53;;;;;;;;;;;;;;;39.32;14.39;101288.63;5038252;28;20246;-91
2022/10/30 09:56:02;;;;;;;;;;;;;;;40.14;13.99;101284.50;5077405;28;20024;-90
2022/10/30 09:58:39;;;;;;;;;;;;;;;40.28;13.81;101279.41;5061330;28;20408;-91
2022/10/30 10:03:58;;;;;;;;;;;;;;;40.70;13.42;101273.63;5102908;22;19925;-87
2022/10/30 10:06:24;;;;;;;;;;;;;;;38.56;14.90;101279.06;5012477;28;19991;-87
2022/10/30 10:09:07;;;;;;;;;;;;;;;38.49;14.93;101267.53;5015083;28;19917;-90
2022/10/30 10:11:38;;;;;;;;;;;;;;;38.59;14.77;101263.53;5011672;28;20445;-86
2022/10/30 10:14:08;;;;;;;;;;;;;;;39.20;14.29;101260.44;4980127;28;20008;-87
2022/10/30 10:16:35;;;;;;;;;;;;;;;39.12;14.24;101267.72;5005896;28;20393;-88
2022/10/30 10:19:06;;;;;;;;;;;;;;;39.04;14.63;101254.56;5017410;28;19929;-88
2022/10/30 10:21:32;;;;;;;;;;;;;;;37.40;15.93;101260.19;5019879;28;19980;-87
2022/10/30 10:24:03;;;;;;;;;;;;;;;37.63;15.52;101251.63;5014675;28;19933;-90
2022/10/30 10:26:41;;;;;;;;;;;;;;;37.19;16.05;101254.38;4999255;28;19972;-93
2022/10/30 10:29:27;;;;;;;;;;;;;;;38.15;15.26;101249.59;5034574;28;19920;-90
2022/10/30 10:32:34;;;;;;;;;;;;;;;37.37;15.70;101249.63;5035083;28;19925;-90
2022/10/30 10:42:56;;;;;;;;;;;;;;;36.87;16.29;101236.78;5070808;28;19925;-87
2022/10/30 10:45:42;;;;;;;;;;;;;;;37.85;16.33;101233.78;5078971;28;19927;-89
2022/10/30 10:48:26;;;;;;;;;;;;;;;37.11;16.30;101232.75;5075651;28;19917;-91
2022/10/30 10:51:03;;;;;;;;;;;;;;;37.42;16.32;101231.78;5075776;28;19935;-95
2022/10/30 10:54:10;;;;;;;;;;;;;;;38.06;15.47;101225.53;5078194;28;19966;-94
2022/10/30 10:56:42;;;;;;;;;;;;;;;37.95;15.46;101220.22;5087379;28;19928;-92
2022/10/30 10:59:50;;;;;;;;;;;;;;;38.35;15.33;101220.00;5187435;22;19919;-91
2022/10/30 11:05:12;;;;;;;;;;;;;;;37.87;15.52;101201.44;5538071;22;19925;-88
2022/10/30 11:08:17;;;;;;;;;;;;;;;37.80;15.68;101201.13;5040702;28;19929;-93
2022/10/30 11:10:42;;;;;;;;;;;;;;;37.94;15.69;101190.53;5028290;28;19932;-91
2022/10/30 11:13:12;;;;;;;;;;;;;;;37.85;15.42;101192.53;5028912;28;20385;-87
2022/10/30 11:15:45;;;;;;;;;;;;;;;37.48;16.34;101180.81;5027680;28;19925;-92
2022/10/30 11:18:10;;;;;;;;;;;;;;;37.93;15.46;101174.84;5019787;28;19917;-92
2022/10/30 11:20:36;;;;;;;;;;;;;;;37.63;15.90;101182.34;5052224;28;19932;-93
2022/10/30 11:23:28;;;;;;;;;;;;;;;37.82;15.47;101176.38;5272757;23;19913;-93
2022/10/30 11:25:54;;;;;;;;;;;;;;;37.86;15.41;101166.13;4963709;28;19937;-94
2022/10/30 11:28:45;;;;;;;;;;;;;;;37.53;15.77;101172.31;4977662;28;20383;-93
2022/10/30 11:31:36;;;;;;;;;;;;;;;37.00;16.13;101164.97;4992866;28;19925;-85
2022/10/30 11:34:17;;;;;;;;;;;;;;;36.00;17.20;101163.59;5005971;28;19925;-88
2022/10/30 11:36:44;;;;;;;;;;;;;;;35.89;17.14;101163.06;4998881;28;19988;-90
2022/10/30 11:39:33;;;;;;;;;;;;;;;35.46;17.54;101143.16;5001020;28;19924;-89
2022/10/30 11:41:58;;;;;;;;;;;;;;;35.30;18.10;101151.09;4999510;28;20003;-88
2022/10/30 11:44:24;;;;;;;;;;;;;;;34.73;18.19;101153.50;5000922;28;20346;-85
2022/10/30 11:46:50;;;;;;;;;;;;;;;33.13;20.08;101151.81;4983799;28;19948;-89
2022/10/30 11:49:45;;;;;;;;;;;;;;;33.00;20.48;101150.56;4985124;28;19917;-87
2022/10/30 11:52:16;;;;;;;;;;;;;;;32.65;20.91;101136.00;4999348;28;19925;-88
2022/10/30 11:54:43;;;;;;;;;;;;;;;32.47;21.33;101133.97;5009688;28;19952;-91
2022/10/30 11:57:21;;;;;;;;;;;;;;;32.09;24.55;101151.38;4992336;28;19944;-91
2022/10/30 11:59:47;;;;;;;;;;;;;;;30.90;27.76;101145.00;4985313;28;20015;-92
2022/10/30 12:02:25;;;;;;;;;;;;;;;29.80;30.18;101145.84;4986065;28;20061;-89
2022/10/30 12:04:54;;;;;;;;;;;;;;;29.73;30.41;101139.75;4995016;28;19940;-90
2022/10/30 12:07:22;;;;;;;;;;;;;;;29.28;31.54;101139.44;4990922;28;20028;-89
2022/10/30 12:09:47;;;;;;;;;;;;;;;28.85;32.21;101140.69;4992530;28;19940;-88
2022/10/30 12:12:22;;;;;;;;;;;;;;;28.61;33.23;101141.97;4990238;28;19921;-88
2022/10/30 12:14:49;;;;;;;;;;;;;;;27.88;34.23;101144.53;5004285;28;19925;-89
2022/10/30 12:17:14;;;;;;;;;;;;;;;27.58;34.76;101145.97;4990297;28;20029;-88
2022/10/30 12:19:45;;;;;;;;;;;;;;;27.65;35.00;101136.59;4983932;28;20315;-88
2022/10/30 12:22:22;;;;;;;;;;;;;;;27.54;35.09;101144.81;5005604;28;19948;-89
2022/10/30 12:24:49;;;;;;;;;;;;;;;27.22;35.71;101153.06;5003425;28;19929;-88
2022/10/30 12:27:16;;;;;;;;;;;;;;;26.56;36.16;101138.47;5006871;28;19944;-86
2022/10/30 12:30:00;;;;;;;;;;;;;;;26.11;37.02;101149.41;5022856;28;20381;-89
2022/10/30 12:32:27;;;;;;;;;;;;;;;25.41;38.54;101149.88;5020867;28;19921;-87
2022/10/30 12:34:57;;;;;;;;;;;;;;;25.44;38.94;101150.19;5007234;28;19987;-89
2022/10/30 12:37:27;;;;;;;;;;;;;;;25.01;39.83;101151.59;5006608;28;20477;-87
2022/10/30 12:39:52;;;;;;;;;;;;;;;24.91;41.11;101150.53;5006490;28;20617;-88
2022/10/30 12:42:21;;;;;;;;;;;;;;;24.05;43.20;101147.56;5030067;28;19921;-88
2022/10/30 12:45:06;;;;;;;;;;;;;;;23.76;43.80;101148.25;5016551;28;20042;-85
2022/10/30 12:47:31;;;;;;;;;;;;;;;23.89;43.23;101149.09;5032953;28;19925;-89
2022/10/30 12:49:58;;;;;;;;;;;;;;;23.54;44.23;101147.09;5032464;28;20400;-89
2022/10/30 12:52:35;;;;;;;;;;;;;;;23.13;45.23;101140.53;4996153;28;19921;-89
2022/10/30 12:55:08;;;;;;;;;;;;;;;23.02;45.86;101153.16;5000966;28;19930;-88
2022/10/30 12:57:42;;;;;;;;;;;;;;;22.86;46.51;101162.81;5028145;28;20016;-90
2022/10/30 13:00:21;;;;;;;;;;;;;;;22.26;48.01;101154.44;5023663;28;19927;-94
2022/10/30 13:02:55;;;;;;;;;;;;;;;22.42;47.81;101145.63;5036556;28;19967;-96
2022/10/30 13:05:28;;;;;;;;;;;;;;;22.60;47.66;101146.69;5070789;23;19998;-95
2022/10/30 13:08:18;;;;;;;;;;;;;;;22.36;48.33;101156.63;5025659;28;19909;-93
2022/10/30 13:11:07;;;;;;;;;;;;;;;22.24;48.47;101156.56;5096889;23;19925;-91
2022/10/30 13:19:23;;;;;;;;;;;;;;;21.52;51.87;101161.56;5094716;22;19933;-91
2022/10/30 13:22:39;;;;;;;;;;;;;;;21.26;53.42;101158.75;5036494;28;19932;-94
2022/10/30 13:29:08;;;;;;;;;;;;;;;21.10;54.80;101159.28;2799009;23;20172;-94
2022/10/30 13:31:49;;;;;;;;;;;;;;;20.98;55.76;101161.03;5017538;28;19971;-94
2022/10/30 13:36:59;;;;;;;;;;;;;;;20.74;56.92;101154.38;5039178;23;19936;-94
2022/10/30 13:39:56;;;;;;;;;;;;;;;20.53;57.70;101160.94;5047319;28;20015;-95
2022/10/30 13:42:49;;;;;;;;;;;;;;;20.49;58.22;101159.72;5032717;28;19932;-89
2022/10/30 13:45:20;;;;;;;;;;;;;;;20.44;58.31;101163.91;5040246;28;19921;-93
2022/10/30 13:48:03;;;;;;;;;;;;;;;20.34;58.78;101160.78;5030623;28;20418;-89
2022/10/30 13:50:35;;;;;;;;;;;;;;;20.21;58.97;101166.28;5034960;28;19925;-90
2022/10/30 13:53:01;;;;;;;;;;;;;;;20.23;58.92;101169.63;5033561;28;19924;-87
2022/10/30 13:56:00;;;;;;;;;;;;;;;20.06;59.23;101162.91;5029851;28;19921;-93
2022/10/30 13:58:58;;;;;;;;;;;;;;;19.77;60.14;101165.03;5028987;28;20035;-92
2022/10/30 14:01:51;;;;;;;;;;;;;;;19.71;60.53;101160.41;4959642;29;19922;-91
2022/10/30 14:04:39;;;;;;;;;;;;;;;19.55;60.97;101151.56;4977629;28;19966;-90
2022/10/30 14:10:30;;;;;;;;;;;;;;;19.48;61.79;101158.91;5472324;22;19956;-90
2022/10/30 14:13:02;;;;;;;;;;;;;;;19.45;62.19;101144.84;5025617;28;19933;-93
2022/10/30 14:15:39;;;;;;;;;;;;;;;19.47;62.15;101149.03;5014598;28;20266;-93
2022/10/30 14:18:11;;;;;;;;;;;;;;;19.42;62.00;101145.25;5019805;28;20000;-92
2022/10/30 14:20:49;;;;;;;;;;;;;;;19.44;62.19;101146.72;5020618;28;19978;-93
2022/10/30 14:23:35;;;;;;;;;;;;;;;19.34;62.33;101146.31;5013235;28;19918;-92
2022/10/30 14:26:06;;;;;;;;;;;;;;;19.10;63.24;101147.69;5010383;28;19920;-92
2022/10/30 14:35:06;;;;;;;;;;;;;;;18.80;64.27;101147.16;4962109;28;20029;-93
2022/10/30 14:37:46;;;;;;;;;;;;;;;18.68;64.51;101145.03;4967175;28;20005;-95
2022/10/30 14:40:39;;;;;;;;;;;;;;;18.58;64.57;101151.88;4964366;29;19922;-96
2022/10/30 14:43:22;;;;;;;;;;;;;;;18.55;64.27;101144.94;4948412;28;19986;-93
2022/10/30 14:46:27;;;;;;;;;;;;;;;18.30;64.82;101142.69;4949217;29;19923;-90
2022/10/30 14:48:53;;;;;;;;;;;;;;;18.17;65.13;101139.91;4893712;29;19924;-96
2022/10/30 14:51:25;;;;;;;;;;;;;;;18.03;65.41;101146.31;5183210;22;19925;-95
2022/10/30 14:57:23;;;;;;;;;;;;;;;17.80;66.15;101150.06;5399202;23;19929;-92
2022/10/30 15:03:18;;;;;;;;;;;;;;;17.66;66.18;101149.13;5388281;23;19947;-87
2022/10/30 15:27:50;;;;;;;;;;;;;;;17.25;65.37;101146.19;5677849;23;20106;-94
2022/10/30 15:33:01;;;;;;;;;;;;;;;17.22;64.93;101150.16;5053899;22;19925;-91
2022/10/30 15:35:29;;;;;;;;;;;;;;;17.20;65.51;101145.94;5085728;22;19990;-94
2022/10/30 15:38:16;;;;;;;;;;;;;;;17.25;64.88;101146.19;4979876;28;19928;-94
2022/10/30 15:41:01;;;;;;;;;;;;;;;17.20;65.39;101144.06;4979811;28;19968;-95
2022/10/30 15:44:00;;;;;;;;;;;;;;;17.17;65.47;101146.34;5408608;23;20023;-93
2022/10/30 15:47:05;;;;;;;;;;;;;;;17.16;65.59;101147.34;5196974;23;20209;-91